sensor_id;sensor_type;location;lat;lon;timestamp;P1;durP1;ratioP1;P2;durP2;ratioP2
13571;SDS011;6857;53.484;10.216;2022-12-10T00:01:49;38.03;;;15.73;;
13571;SDS011;6857;53.484;10.216;2022-12-10T00:04:15;40.40;;;14.87;;
13571;SDS011;6857;53.484;10.216;2022-12-10T00:06:41;36.17;;;14.47;;
13571;SDS011;6857;53.484;10.216;2022-12-10T00:09:12;35.77;;;14.73;;
13571;SDS011;6857;53.484;10.216;2022-12-10T00:11:39;38.00;;;15.53;;
13571;SDS011;6857;53.484;10.216;2022-12-10T00:14:05;37.10;;;14.60;;
13571;SDS011;6857;53.484;10.216;2022-12-10T00:16:32;36.70;;;15.07;;
13571;SDS011;6857;53.484;10.216;2022-12-10T00:18:58;34.50;;;14.67;;
13571;SDS011;6857;53.484;10.216;2022-12-10T00:21:26;31.33;;;14.67;;
13571;SDS011;6857;53.484;10.216;2022-12-10T00:23:52;34.20;;;14.70;;
13571;SDS011;6857;53.484;10.216;2022-12-10T00:26:26;32.63;;;14.73;;
13571;SDS011;6857;53.484;10.216;2022-12-10T00:28:52;32.63;;;13.93;;
13571;SDS011;6857;53.484;10.216;2022-12-10T00:31:20;34.67;;;14.77;;
13571;SDS011;6857;53.484;10.216;2022-12-10T00:33:47;34.80;;;13.77;;
13571;SDS011;6857;53.484;10.216;2022-12-10T00:36:15;32.07;;;13.83;;
13571;SDS011;6857;53.484;10.216;2022-12-10T00:38:42;31.43;;;11.87;;
13571;SDS011;6857;53.484;10.216;2022-12-10T00:41:08;32.87;;;12.43;;
13571;SDS011;6857;53.484;10.216;2022-12-10T00:43:34;33.13;;;13.17;;
13571;SDS011;6857;53.484;10.216;2022-12-10T00:46:00;30.57;;;14.03;;
13571;SDS011;6857;53.484;10.216;2022-12-10T00:48:26;32.30;;;13.07;;
13571;SDS011;6857;53.484;10.216;2022-12-10T00:50:59;33.83;;;13.87;;
13571;SDS011;6857;53.484;10.216;2022-12-10T00:53:26;31.90;;;13.07;;
13571;SDS011;6857;53.484;10.216;2022-12-10T00:55:53;31.83;;;12.90;;
13571;SDS011;6857;53.484;10.216;2022-12-10T00:58:19;28.13;;;11.80;;
13571;SDS011;6857;53.484;10.216;2022-12-10T01:00:45;32.13;;;13.23;;
13571;SDS011;6857;53.484;10.216;2022-12-10T01:03:12;32.70;;;13.63;;
13571;SDS011;6857;53.484;10.216;2022-12-10T01:05:38;26.43;;;11.83;;
13571;SDS011;6857;53.484;10.216;2022-12-10T01:08:04;29.23;;;11.93;;
13571;SDS011;6857;53.484;10.216;2022-12-10T01:10:30;26.47;;;11.50;;
13571;SDS011;6857;53.484;10.216;2022-12-10T01:12:56;24.90;;;12.20;;
13571;SDS011;6857;53.484;10.216;2022-12-10T01:15:21;31.10;;;13.30;;
13571;SDS011;6857;53.484;10.216;2022-12-10T01:17:47;24.03;;;11.60;;
13571;SDS011;6857;53.484;10.216;2022-12-10T01:20:13;23.80;;;10.50;;
13571;SDS011;6857;53.484;10.216;2022-12-10T01:22:39;23.17;;;10.97;;
13571;SDS011;6857;53.484;10.216;2022-12-10T01:25:05;27.43;;;11.17;;
13571;SDS011;6857;53.484;10.216;2022-12-10T01:27:32;26.73;;;12.40;;
13571;SDS011;6857;53.484;10.216;2022-12-10T01:29:59;23.57;;;11.00;;
13571;SDS011;6857;53.484;10.216;2022-12-10T01:32:25;26.33;;;10.20;;
13571;SDS011;6857;53.484;10.216;2022-12-10T01:34:51;23.63;;;10.50;;
13571;SDS011;6857;53.484;10.216;2022-12-10T01:37:17;24.23;;;11.00;;
13571;SDS011;6857;53.484;10.216;2022-12-10T01:39:42;25.30;;;11.03;;
13571;SDS011;6857;53.484;10.216;2022-12-10T01:42:09;24.77;;;11.30;;
13571;SDS011;6857;53.484;10.216;2022-12-10T01:47:06;24.37;;;10.70;;
13571;SDS011;6857;53.484;10.216;2022-12-10T01:49:36;21.40;;;10.10;;
13571;SDS011;6857;53.484;10.216;2022-12-10T01:52:03;22.63;;;10.23;;
13571;SDS011;6857;53.484;10.216;2022-12-10T01:54:33;18.73;;;9.47;;
13571;SDS011;6857;53.484;10.216;2022-12-10T01:57:13;19.73;;;10.13;;
13571;SDS011;6857;53.484;10.216;2022-12-10T01:59:39;22.17;;;9.87;;
13571;SDS011;6857;53.484;10.216;2022-12-10T02:04:41;23.30;;;9.70;;
13571;SDS011;6857;53.484;10.216;2022-12-10T02:09:36;19.83;;;9.63;;
13571;SDS011;6857;53.484;10.216;2022-12-10T02:14:53;21.13;;;10.00;;
13571;SDS011;6857;53.484;10.216;2022-12-10T02:18:04;25.17;;;10.87;;
13571;SDS011;6857;53.484;10.216;2022-12-10T02:20:12;21.60;;;10.53;;
13571;SDS011;6857;53.484;10.216;2022-12-10T02:22:40;22.80;;;10.80;;
13571;SDS011;6857;53.484;10.216;2022-12-10T02:25:08;24.00;;;11.00;;
13571;SDS011;6857;53.484;10.216;2022-12-10T02:30:21;19.93;;;9.77;;
13571;SDS011;6857;53.484;10.216;2022-12-10T02:32:47;20.87;;;10.43;;
13571;SDS011;6857;53.484;10.216;2022-12-10T02:35:19;21.77;;;10.70;;
13571;SDS011;6857;53.484;10.216;2022-12-10T02:37:49;19.83;;;10.43;;
13571;SDS011;6857;53.484;10.216;2022-12-10T02:40:22;20.33;;;10.20;;
13571;SDS011;6857;53.484;10.216;2022-12-10T02:42:49;23.30;;;10.93;;
13571;SDS011;6857;53.484;10.216;2022-12-10T02:45:16;30.10;;;14.07;;
13571;SDS011;6857;53.484;10.216;2022-12-10T02:47:42;21.07;;;10.53;;
13571;SDS011;6857;53.484;10.216;2022-12-10T02:50:08;22.13;;;11.10;;
13571;SDS011;6857;53.484;10.216;2022-12-10T02:52:35;22.00;;;10.77;;
13571;SDS011;6857;53.484;10.216;2022-12-10T02:55:01;22.23;;;10.87;;
13571;SDS011;6857;53.484;10.216;2022-12-10T03:02:33;21.93;;;10.40;;
13571;SDS011;6857;53.484;10.216;2022-12-10T03:08:12;16.07;;;9.83;;
13571;SDS011;6857;53.484;10.216;2022-12-10T03:12:46;11.67;;;7.13;;
13571;SDS011;6857;53.484;10.216;2022-12-10T03:15:13;15.40;;;8.67;;
13571;SDS011;6857;53.484;10.216;2022-12-10T03:17:39;13.43;;;7.37;;
13571;SDS011;6857;53.484;10.216;2022-12-10T03:20:07;12.17;;;7.37;;
13571;SDS011;6857;53.484;10.216;2022-12-10T03:22:33;15.20;;;7.60;;
13571;SDS011;6857;53.484;10.216;2022-12-10T03:25:00;15.87;;;8.37;;
13571;SDS011;6857;53.484;10.216;2022-12-10T03:27:26;13.30;;;7.30;;
13571;SDS011;6857;53.484;10.216;2022-12-10T03:29:55;12.80;;;7.23;;
13571;SDS011;6857;53.484;10.216;2022-12-10T03:32:22;14.60;;;7.93;;
13571;SDS011;6857;53.484;10.216;2022-12-10T03:34:49;13.53;;;8.17;;
13571;SDS011;6857;53.484;10.216;2022-12-10T03:37:16;13.77;;;8.33;;
13571;SDS011;6857;53.484;10.216;2022-12-10T03:39:42;13.87;;;8.50;;
13571;SDS011;6857;53.484;10.216;2022-12-10T03:42:08;14.83;;;8.17;;
13571;SDS011;6857;53.484;10.216;2022-12-10T03:44:35;15.40;;;8.70;;
13571;SDS011;6857;53.484;10.216;2022-12-10T03:47:02;15.50;;;9.37;;
13571;SDS011;6857;53.484;10.216;2022-12-10T03:49:29;13.87;;;8.17;;
13571;SDS011;6857;53.484;10.216;2022-12-10T03:51:55;16.33;;;9.47;;
13571;SDS011;6857;53.484;10.216;2022-12-10T03:54:21;15.93;;;8.13;;
13571;SDS011;6857;53.484;10.216;2022-12-10T03:56:47;12.17;;;7.37;;
13571;SDS011;6857;53.484;10.216;2022-12-10T03:59:13;14.47;;;8.60;;
13571;SDS011;6857;53.484;10.216;2022-12-10T04:01:39;12.90;;;8.37;;
13571;SDS011;6857;53.484;10.216;2022-12-10T04:04:05;11.77;;;7.57;;
13571;SDS011;6857;53.484;10.216;2022-12-10T04:06:31;15.30;;;8.53;;
13571;SDS011;6857;53.484;10.216;2022-12-10T04:08:57;12.90;;;7.73;;
13571;SDS011;6857;53.484;10.216;2022-12-10T04:11:23;13.63;;;7.87;;
13571;SDS011;6857;53.484;10.216;2022-12-10T04:13:50;12.20;;;8.13;;
13571;SDS011;6857;53.484;10.216;2022-12-10T04:16:35;12.37;;;7.23;;
13571;SDS011;6857;53.484;10.216;2022-12-10T04:19:03;13.40;;;8.73;;
13571;SDS011;6857;53.484;10.216;2022-12-10T04:21:30;13.53;;;7.47;;
13571;SDS011;6857;53.484;10.216;2022-12-10T04:24:15;12.60;;;7.30;;
13571;SDS011;6857;53.484;10.216;2022-12-10T04:27:02;11.93;;;6.87;;
13571;SDS011;6857;53.484;10.216;2022-12-10T04:29:29;11.10;;;7.03;;
13571;SDS011;6857;53.484;10.216;2022-12-10T04:31:55;10.23;;;6.53;;
13571;SDS011;6857;53.484;10.216;2022-12-10T04:34:22;10.93;;;6.87;;
13571;SDS011;6857;53.484;10.216;2022-12-10T04:36:48;9.93;;;6.20;;
13571;SDS011;6857;53.484;10.216;2022-12-10T04:39:14;12.50;;;7.47;;
13571;SDS011;6857;53.484;10.216;2022-12-10T04:41:41;9.43;;;6.77;;
13571;SDS011;6857;53.484;10.216;2022-12-10T04:44:07;11.03;;;6.67;;
13571;SDS011;6857;53.484;10.216;2022-12-10T04:46:34;9.70;;;5.97;;
13571;SDS011;6857;53.484;10.216;2022-12-10T04:49:00;10.73;;;6.27;;
13571;SDS011;6857;53.484;10.216;2022-12-10T04:51:26;10.73;;;6.50;;
13571;SDS011;6857;53.484;10.216;2022-12-10T04:53:51;11.67;;;7.57;;
13571;SDS011;6857;53.484;10.216;2022-12-10T04:56:17;11.20;;;7.20;;
13571;SDS011;6857;53.484;10.216;2022-12-10T04:58:43;12.60;;;7.00;;
13571;SDS011;6857;53.484;10.216;2022-12-10T05:01:10;11.33;;;7.73;;
13571;SDS011;6857;53.484;10.216;2022-12-10T05:03:37;11.53;;;7.13;;
13571;SDS011;6857;53.484;10.216;2022-12-10T05:06:04;11.63;;;8.13;;
13571;SDS011;6857;53.484;10.216;2022-12-10T05:08:30;13.80;;;7.37;;
13571;SDS011;6857;53.484;10.216;2022-12-10T05:11:00;13.13;;;7.63;;
13571;SDS011;6857;53.484;10.216;2022-12-10T05:13:26;13.87;;;8.77;;
13571;SDS011;6857;53.484;10.216;2022-12-10T05:15:52;11.43;;;7.23;;
13571;SDS011;6857;53.484;10.216;2022-12-10T05:18:18;11.60;;;7.97;;
13571;SDS011;6857;53.484;10.216;2022-12-10T05:20:44;10.60;;;7.57;;
13571;SDS011;6857;53.484;10.216;2022-12-10T05:23:10;12.03;;;7.40;;
13571;SDS011;6857;53.484;10.216;2022-12-10T05:25:58;12.23;;;6.67;;
13571;SDS011;6857;53.484;10.216;2022-12-10T05:28:24;12.03;;;7.07;;
13571;SDS011;6857;53.484;10.216;2022-12-10T05:30:50;10.83;;;6.77;;
13571;SDS011;6857;53.484;10.216;2022-12-10T05:33:16;11.53;;;7.17;;
13571;SDS011;6857;53.484;10.216;2022-12-10T05:35:42;12.37;;;7.20;;
13571;SDS011;6857;53.484;10.216;2022-12-10T05:38:08;10.90;;;7.07;;
13571;SDS011;6857;53.484;10.216;2022-12-10T05:40:38;10.90;;;6.90;;
13571;SDS011;6857;53.484;10.216;2022-12-10T05:43:04;11.50;;;7.90;;
13571;SDS011;6857;53.484;10.216;2022-12-10T05:45:33;11.07;;;7.20;;
13571;SDS011;6857;53.484;10.216;2022-12-10T05:47:59;10.77;;;7.50;;
13571;SDS011;6857;53.484;10.216;2022-12-10T05:50:25;11.63;;;7.30;;
13571;SDS011;6857;53.484;10.216;2022-12-10T05:52:51;9.97;;;6.50;;
13571;SDS011;6857;53.484;10.216;2022-12-10T05:55:18;9.80;;;6.23;;
13571;SDS011;6857;53.484;10.216;2022-12-10T05:57:44;10.40;;;6.97;;
13571;SDS011;6857;53.484;10.216;2022-12-10T06:00:10;9.80;;;5.80;;
13571;SDS011;6857;53.484;10.216;2022-12-10T06:02:36;12.10;;;6.57;;
13571;SDS011;6857;53.484;10.216;2022-12-10T06:05:02;11.03;;;7.27;;
13571;SDS011;6857;53.484;10.216;2022-12-10T06:07:29;11.80;;;7.60;;
13571;SDS011;6857;53.484;10.216;2022-12-10T06:09:55;14.00;;;7.50;;
13571;SDS011;6857;53.484;10.216;2022-12-10T06:12:21;10.37;;;6.70;;
13571;SDS011;6857;53.484;10.216;2022-12-10T06:14:47;11.83;;;7.17;;
13571;SDS011;6857;53.484;10.216;2022-12-10T06:17:13;10.67;;;6.97;;
13571;SDS011;6857;53.484;10.216;2022-12-10T06:19:39;10.27;;;6.60;;
13571;SDS011;6857;53.484;10.216;2022-12-10T06:22:05;12.70;;;7.37;;
13571;SDS011;6857;53.484;10.216;2022-12-10T06:24:31;11.70;;;6.80;;
13571;SDS011;6857;53.484;10.216;2022-12-10T06:26:57;12.70;;;7.40;;
13571;SDS011;6857;53.484;10.216;2022-12-10T06:29:23;12.43;;;7.37;;
13571;SDS011;6857;53.484;10.216;2022-12-10T06:31:49;11.50;;;7.10;;
13571;SDS011;6857;53.484;10.216;2022-12-10T06:34:15;10.20;;;6.33;;
13571;SDS011;6857;53.484;10.216;2022-12-10T06:36:41;11.30;;;6.60;;
13571;SDS011;6857;53.484;10.216;2022-12-10T06:39:07;10.87;;;6.73;;
13571;SDS011;6857;53.484;10.216;2022-12-10T06:41:33;12.13;;;6.70;;
13571;SDS011;6857;53.484;10.216;2022-12-10T06:43:59;10.50;;;6.70;;
13571;SDS011;6857;53.484;10.216;2022-12-10T06:46:25;11.97;;;6.73;;
13571;SDS011;6857;53.484;10.216;2022-12-10T06:48:53;10.73;;;6.63;;
13571;SDS011;6857;53.484;10.216;2022-12-10T06:51:19;10.50;;;6.70;;
13571;SDS011;6857;53.484;10.216;2022-12-10T06:53:45;10.93;;;7.13;;
13571;SDS011;6857;53.484;10.216;2022-12-10T06:56:12;11.50;;;7.30;;
13571;SDS011;6857;53.484;10.216;2022-12-10T06:58:38;13.47;;;8.17;;
13571;SDS011;6857;53.484;10.216;2022-12-10T07:01:08;12.70;;;7.33;;
13571;SDS011;6857;53.484;10.216;2022-12-10T07:03:35;12.23;;;7.20;;
13571;SDS011;6857;53.484;10.216;2022-12-10T07:06:01;14.20;;;8.17;;
13571;SDS011;6857;53.484;10.216;2022-12-10T07:08:27;15.50;;;8.40;;
13571;SDS011;6857;53.484;10.216;2022-12-10T07:10:53;13.40;;;8.10;;
13571;SDS011;6857;53.484;10.216;2022-12-10T07:13:19;13.07;;;7.90;;
13571;SDS011;6857;53.484;10.216;2022-12-10T07:15:45;15.03;;;8.37;;
13571;SDS011;6857;53.484;10.216;2022-12-10T07:18:12;13.07;;;8.40;;
13571;SDS011;6857;53.484;10.216;2022-12-10T07:20:38;14.23;;;7.97;;
13571;SDS011;6857;53.484;10.216;2022-12-10T07:23:03;11.97;;;7.53;;
13571;SDS011;6857;53.484;10.216;2022-12-10T07:25:29;12.17;;;7.07;;
13571;SDS011;6857;53.484;10.216;2022-12-10T07:27:56;12.57;;;7.97;;
13571;SDS011;6857;53.484;10.216;2022-12-10T07:30:22;12.30;;;7.40;;
13571;SDS011;6857;53.484;10.216;2022-12-10T07:32:48;11.60;;;6.37;;
13571;SDS011;6857;53.484;10.216;2022-12-10T07:35:14;13.77;;;7.93;;
13571;SDS011;6857;53.484;10.216;2022-12-10T07:37:40;14.50;;;7.90;;
13571;SDS011;6857;53.484;10.216;2022-12-10T07:40:06;11.13;;;6.93;;
13571;SDS011;6857;53.484;10.216;2022-12-10T07:42:32;9.40;;;5.83;;
13571;SDS011;6857;53.484;10.216;2022-12-10T07:44:58;10.37;;;6.47;;
13571;SDS011;6857;53.484;10.216;2022-12-10T07:47:24;11.13;;;6.67;;
13571;SDS011;6857;53.484;10.216;2022-12-10T07:49:50;13.07;;;7.30;;
13571;SDS011;6857;53.484;10.216;2022-12-10T07:52:16;9.93;;;6.27;;
13571;SDS011;6857;53.484;10.216;2022-12-10T07:54:42;10.27;;;6.40;;
13571;SDS011;6857;53.484;10.216;2022-12-10T07:57:08;8.90;;;6.00;;
13571;SDS011;6857;53.484;10.216;2022-12-10T07:59:34;11.90;;;6.87;;
13571;SDS011;6857;53.484;10.216;2022-12-10T08:02:00;9.27;;;6.10;;
13571;SDS011;6857;53.484;10.216;2022-12-10T08:04:29;11.00;;;6.37;;
13571;SDS011;6857;53.484;10.216;2022-12-10T08:06:55;8.57;;;5.93;;
13571;SDS011;6857;53.484;10.216;2022-12-10T08:09:21;11.20;;;7.03;;
13571;SDS011;6857;53.484;10.216;2022-12-10T08:11:47;10.23;;;6.73;;
13571;SDS011;6857;53.484;10.216;2022-12-10T08:14:13;9.47;;;5.53;;
13571;SDS011;6857;53.484;10.216;2022-12-10T08:16:39;9.80;;;5.87;;
13571;SDS011;6857;53.484;10.216;2022-12-10T08:19:05;8.03;;;5.90;;
13571;SDS011;6857;53.484;10.216;2022-12-10T08:21:31;10.03;;;6.03;;
13571;SDS011;6857;53.484;10.216;2022-12-10T08:23:57;10.03;;;6.37;;
13571;SDS011;6857;53.484;10.216;2022-12-10T08:26:26;9.03;;;6.20;;
13571;SDS011;6857;53.484;10.216;2022-12-10T08:28:52;11.60;;;7.27;;
13571;SDS011;6857;53.484;10.216;2022-12-10T08:31:19;9.20;;;6.00;;
13571;SDS011;6857;53.484;10.216;2022-12-10T08:33:45;8.40;;;5.63;;
13571;SDS011;6857;53.484;10.216;2022-12-10T08:36:12;10.40;;;5.93;;
13571;SDS011;6857;53.484;10.216;2022-12-10T08:38:38;9.73;;;6.43;;
13571;SDS011;6857;53.484;10.216;2022-12-10T08:41:09;10.20;;;6.83;;
13571;SDS011;6857;53.484;10.216;2022-12-10T08:43:35;11.30;;;6.67;;
13571;SDS011;6857;53.484;10.216;2022-12-10T08:46:01;11.53;;;7.17;;
13571;SDS011;6857;53.484;10.216;2022-12-10T08:48:27;11.53;;;7.27;;
13571;SDS011;6857;53.484;10.216;2022-12-10T08:50:53;13.20;;;7.67;;
13571;SDS011;6857;53.484;10.216;2022-12-10T08:53:19;13.50;;;7.60;;
13571;SDS011;6857;53.484;10.216;2022-12-10T08:55:45;10.50;;;6.37;;
13571;SDS011;6857;53.484;10.216;2022-12-10T08:58:11;16.43;;;9.77;;
13571;SDS011;6857;53.484;10.216;2022-12-10T09:00:37;13.97;;;8.00;;
13571;SDS011;6857;53.484;10.216;2022-12-10T09:03:03;13.93;;;7.97;;
13571;SDS011;6857;53.484;10.216;2022-12-10T09:05:29;12.43;;;6.83;;
13571;SDS011;6857;53.484;10.216;2022-12-10T09:07:55;10.70;;;7.17;;
13571;SDS011;6857;53.484;10.216;2022-12-10T09:10:21;10.23;;;7.00;;
13571;SDS011;6857;53.484;10.216;2022-12-10T09:12:47;12.80;;;7.30;;
13571;SDS011;6857;53.484;10.216;2022-12-10T09:15:13;9.80;;;6.43;;
13571;SDS011;6857;53.484;10.216;2022-12-10T09:17:39;12.87;;;7.93;;
13571;SDS011;6857;53.484;10.216;2022-12-10T09:20:05;13.23;;;7.70;;
13571;SDS011;6857;53.484;10.216;2022-12-10T09:22:31;14.63;;;7.97;;
13571;SDS011;6857;53.484;10.216;2022-12-10T09:24:57;10.43;;;7.43;;
13571;SDS011;6857;53.484;10.216;2022-12-10T09:27:23;12.00;;;7.67;;
13571;SDS011;6857;53.484;10.216;2022-12-10T09:29:49;10.57;;;6.73;;
13571;SDS011;6857;53.484;10.216;2022-12-10T09:32:16;10.10;;;6.87;;
13571;SDS011;6857;53.484;10.216;2022-12-10T09:34:42;12.67;;;8.03;;
13571;SDS011;6857;53.484;10.216;2022-12-10T09:37:08;10.67;;;7.10;;
13571;SDS011;6857;53.484;10.216;2022-12-10T09:39:34;11.53;;;7.40;;
13571;SDS011;6857;53.484;10.216;2022-12-10T09:44:47;9.43;;;6.30;;
13571;SDS011;6857;53.484;10.216;2022-12-10T09:47:19;9.63;;;6.57;;
13571;SDS011;6857;53.484;10.216;2022-12-10T09:52:16;13.20;;;7.47;;
13571;SDS011;6857;53.484;10.216;2022-12-10T09:59:48;8.93;;;5.87;;
13571;SDS011;6857;53.484;10.216;2022-12-10T10:04:43;13.10;;;7.53;;
13571;SDS011;6857;53.484;10.216;2022-12-10T10:07:20;10.37;;;5.97;;
13571;SDS011;6857;53.484;10.216;2022-12-10T10:09:47;11.73;;;6.47;;
13571;SDS011;6857;53.484;10.216;2022-12-10T10:12:14;10.70;;;6.63;;
13571;SDS011;6857;53.484;10.216;2022-12-10T10:14:41;11.97;;;7.40;;
13571;SDS011;6857;53.484;10.216;2022-12-10T10:17:09;11.53;;;6.20;;
13571;SDS011;6857;53.484;10.216;2022-12-10T10:19:37;13.87;;;7.33;;
13571;SDS011;6857;53.484;10.216;2022-12-10T10:22:04;12.00;;;7.50;;
13571;SDS011;6857;53.484;10.216;2022-12-10T10:24:41;10.60;;;6.63;;
13571;SDS011;6857;53.484;10.216;2022-12-10T10:27:11;9.27;;;6.20;;
13571;SDS011;6857;53.484;10.216;2022-12-10T10:29:37;11.13;;;7.50;;
13571;SDS011;6857;53.484;10.216;2022-12-10T10:32:11;10.33;;;6.40;;
13571;SDS011;6857;53.484;10.216;2022-12-10T10:34:38;14.57;;;8.43;;
13571;SDS011;6857;53.484;10.216;2022-12-10T10:37:04;12.03;;;8.13;;
13571;SDS011;6857;53.484;10.216;2022-12-10T10:39:31;12.30;;;8.03;;
13571;SDS011;6857;53.484;10.216;2022-12-10T10:41:59;13.67;;;9.10;;
13571;SDS011;6857;53.484;10.216;2022-12-10T10:44:27;13.70;;;8.77;;
13571;SDS011;6857;53.484;10.216;2022-12-10T10:46:54;16.30;;;9.53;;
13571;SDS011;6857;53.484;10.216;2022-12-10T10:49:27;15.67;;;9.07;;
13571;SDS011;6857;53.484;10.216;2022-12-10T10:51:58;14.97;;;8.80;;
13571;SDS011;6857;53.484;10.216;2022-12-10T10:54:31;14.33;;;8.63;;
13571;SDS011;6857;53.484;10.216;2022-12-10T10:56:58;13.80;;;9.43;;
13571;SDS011;6857;53.484;10.216;2022-12-10T10:59:30;15.47;;;9.40;;
13571;SDS011;6857;53.484;10.216;2022-12-10T11:01:59;13.60;;;8.77;;
13571;SDS011;6857;53.484;10.216;2022-12-10T11:04:28;15.30;;;9.63;;
13571;SDS011;6857;53.484;10.216;2022-12-10T11:06:55;14.13;;;9.07;;
13571;SDS011;6857;53.484;10.216;2022-12-10T11:09:27;13.97;;;9.47;;
13571;SDS011;6857;53.484;10.216;2022-12-10T11:12:06;19.30;;;10.47;;
13571;SDS011;6857;53.484;10.216;2022-12-10T11:14:46;12.77;;;7.97;;
13571;SDS011;6857;53.484;10.216;2022-12-10T11:17:20;14.03;;;9.03;;
13571;SDS011;6857;53.484;10.216;2022-12-10T11:20:13;14.77;;;8.57;;
13571;SDS011;6857;53.484;10.216;2022-12-10T11:22:48;16.80;;;9.43;;
13571;SDS011;6857;53.484;10.216;2022-12-10T11:25:14;16.80;;;9.07;;
13571;SDS011;6857;53.484;10.216;2022-12-10T11:27:52;12.97;;;8.67;;
13571;SDS011;6857;53.484;10.216;2022-12-10T11:30:23;15.20;;;8.40;;
13571;SDS011;6857;53.484;10.216;2022-12-10T11:32:58;14.30;;;8.97;;
13571;SDS011;6857;53.484;10.216;2022-12-10T11:38:07;15.23;;;8.03;;
13571;SDS011;6857;53.484;10.216;2022-12-10T11:43:11;15.13;;;8.50;;
13571;SDS011;6857;53.484;10.216;2022-12-10T12:01:10;13.57;;;8.37;;
13571;SDS011;6857;53.484;10.216;2022-12-10T12:03:42;16.30;;;10.07;;
13571;SDS011;6857;53.484;10.216;2022-12-10T12:13:36;15.67;;;9.30;;
13571;SDS011;6857;53.484;10.216;2022-12-10T12:16:10;15.63;;;9.27;;
13571;SDS011;6857;53.484;10.216;2022-12-10T12:21:03;13.20;;;8.23;;
13571;SDS011;6857;53.484;10.216;2022-12-10T12:26:00;14.93;;;9.40;;
13571;SDS011;6857;53.484;10.216;2022-12-10T12:28:31;16.97;;;10.87;;
13571;SDS011;6857;53.484;10.216;2022-12-10T12:31:08;16.70;;;9.40;;
13571;SDS011;6857;53.484;10.216;2022-12-10T12:33:59;16.53;;;9.70;;
13571;SDS011;6857;53.484;10.216;2022-12-10T12:36:22;15.33;;;8.87;;
13571;SDS011;6857;53.484;10.216;2022-12-10T12:41:42;13.57;;;8.57;;
13571;SDS011;6857;53.484;10.216;2022-12-10T12:46:55;15.90;;;9.03;;
13571;SDS011;6857;53.484;10.216;2022-12-10T12:51:55;20.60;;;10.73;;
13571;SDS011;6857;53.484;10.216;2022-12-10T12:54:22;12.93;;;7.43;;
13571;SDS011;6857;53.484;10.216;2022-12-10T12:56:57;15.60;;;8.87;;
13571;SDS011;6857;53.484;10.216;2022-12-10T13:02:06;13.33;;;7.93;;
13571;SDS011;6857;53.484;10.216;2022-12-10T13:04:37;17.10;;;10.60;;
13571;SDS011;6857;53.484;10.216;2022-12-10T13:09:44;14.07;;;8.50;;
13571;SDS011;6857;53.484;10.216;2022-12-10T13:14:54;12.50;;;7.87;;
13571;SDS011;6857;53.484;10.216;2022-12-10T13:17:33;13.57;;;8.30;;
13571;SDS011;6857;53.484;10.216;2022-12-10T13:22:53;13.83;;;8.77;;
13571;SDS011;6857;53.484;10.216;2022-12-10T13:25:22;14.53;;;8.73;;
13571;SDS011;6857;53.484;10.216;2022-12-10T13:28:16;12.73;;;7.80;;
13571;SDS011;6857;53.484;10.216;2022-12-10T13:31:05;13.40;;;8.23;;
13571;SDS011;6857;53.484;10.216;2022-12-10T13:36:12;15.20;;;9.17;;
13571;SDS011;6857;53.484;10.216;2022-12-10T13:38:40;17.43;;;9.30;;
13571;SDS011;6857;53.484;10.216;2022-12-10T13:41:07;15.57;;;9.67;;
13571;SDS011;6857;53.484;10.216;2022-12-10T13:43:56;13.83;;;8.77;;
13571;SDS011;6857;53.484;10.216;2022-12-10T13:49:17;14.03;;;8.10;;
13571;SDS011;6857;53.484;10.216;2022-12-10T13:51:50;16.20;;;9.83;;
13571;SDS011;6857;53.484;10.216;2022-12-10T13:54:31;15.17;;;8.70;;
13571;SDS011;6857;53.484;10.216;2022-12-10T14:05:03;14.00;;;9.00;;
13571;SDS011;6857;53.484;10.216;2022-12-10T14:07:29;15.17;;;9.27;;
13571;SDS011;6857;53.484;10.216;2022-12-10T14:09:56;12.23;;;7.57;;
13571;SDS011;6857;53.484;10.216;2022-12-10T14:12:36;12.33;;;7.73;;
13571;SDS011;6857;53.484;10.216;2022-12-10T14:15:07;11.87;;;7.57;;
13571;SDS011;6857;53.484;10.216;2022-12-10T14:17:36;15.30;;;8.37;;
13571;SDS011;6857;53.484;10.216;2022-12-10T14:20:03;15.20;;;9.17;;
13571;SDS011;6857;53.484;10.216;2022-12-10T14:22:31;14.93;;;9.23;;
13571;SDS011;6857;53.484;10.216;2022-12-10T14:25:00;16.10;;;8.60;;
13571;SDS011;6857;53.484;10.216;2022-12-10T14:27:27;18.00;;;8.90;;
13571;SDS011;6857;53.484;10.216;2022-12-10T14:32:38;14.73;;;8.03;;
13571;SDS011;6857;53.484;10.216;2022-12-10T14:35:05;16.00;;;8.73;;
13571;SDS011;6857;53.484;10.216;2022-12-10T14:37:33;25.73;;;12.77;;
13571;SDS011;6857;53.484;10.216;2022-12-10T14:40:00;35.90;;;21.53;;
13571;SDS011;6857;53.484;10.216;2022-12-10T14:42:26;35.37;;;22.00;;
13571;SDS011;6857;53.484;10.216;2022-12-10T14:45:00;23.13;;;14.13;;
13571;SDS011;6857;53.484;10.216;2022-12-10T14:47:27;15.97;;;9.57;;
13571;SDS011;6857;53.484;10.216;2022-12-10T14:49:57;16.53;;;9.43;;
13571;SDS011;6857;53.484;10.216;2022-12-10T14:52:31;14.87;;;9.00;;
13571;SDS011;6857;53.484;10.216;2022-12-10T14:55:01;14.83;;;9.70;;
13571;SDS011;6857;53.484;10.216;2022-12-10T14:57:28;13.10;;;8.10;;
13571;SDS011;6857;53.484;10.216;2022-12-10T15:00:09;17.67;;;8.73;;
13571;SDS011;6857;53.484;10.216;2022-12-10T15:02:38;15.50;;;8.87;;
13571;SDS011;6857;53.484;10.216;2022-12-10T15:05:11;15.93;;;8.90;;
13571;SDS011;6857;53.484;10.216;2022-12-10T15:07:38;14.70;;;8.63;;
13571;SDS011;6857;53.484;10.216;2022-12-10T15:10:07;37.33;;;23.90;;
13571;SDS011;6857;53.484;10.216;2022-12-10T15:12:36;13.17;;;9.57;;
13571;SDS011;6857;53.484;10.216;2022-12-10T15:15:10;14.40;;;8.80;;
13571;SDS011;6857;53.484;10.216;2022-12-10T15:17:42;13.63;;;8.27;;
13571;SDS011;6857;53.484;10.216;2022-12-10T15:20:09;14.90;;;9.20;;
13571;SDS011;6857;53.484;10.216;2022-12-10T15:22:35;13.90;;;8.57;;
13571;SDS011;6857;53.484;10.216;2022-12-10T15:25:12;14.63;;;8.50;;
13571;SDS011;6857;53.484;10.216;2022-12-10T15:27:40;18.30;;;10.00;;
13571;SDS011;6857;53.484;10.216;2022-12-10T15:30:21;21.50;;;11.87;;
13571;SDS011;6857;53.484;10.216;2022-12-10T15:32:47;15.30;;;9.00;;
13571;SDS011;6857;53.484;10.216;2022-12-10T15:35:14;12.70;;;7.93;;
13571;SDS011;6857;53.484;10.216;2022-12-10T15:37:40;14.30;;;8.87;;
13571;SDS011;6857;53.484;10.216;2022-12-10T15:40:31;12.10;;;7.33;;
13571;SDS011;6857;53.484;10.216;2022-12-10T15:43:49;12.33;;;8.13;;
13571;SDS011;6857;53.484;10.216;2022-12-10T15:45:42;14.30;;;8.83;;
13571;SDS011;6857;53.484;10.216;2022-12-10T15:48:10;13.03;;;8.57;;
13571;SDS011;6857;53.484;10.216;2022-12-10T15:50:37;12.60;;;8.23;;
13571;SDS011;6857;53.484;10.216;2022-12-10T15:53:03;17.37;;;9.23;;
13571;SDS011;6857;53.484;10.216;2022-12-10T15:55:29;14.90;;;8.20;;
13571;SDS011;6857;53.484;10.216;2022-12-10T15:57:55;13.63;;;8.27;;
13571;SDS011;6857;53.484;10.216;2022-12-10T16:00:22;13.23;;;7.90;;
13571;SDS011;6857;53.484;10.216;2022-12-10T16:03:10;15.73;;;8.77;;
13571;SDS011;6857;53.484;10.216;2022-12-10T16:05:36;13.37;;;8.30;;
13571;SDS011;6857;53.484;10.216;2022-12-10T16:10:33;16.03;;;8.77;;
13571;SDS011;6857;53.484;10.216;2022-12-10T16:13:00;15.37;;;8.13;;
13571;SDS011;6857;53.484;10.216;2022-12-10T16:15:27;12.33;;;7.23;;
13571;SDS011;6857;53.484;10.216;2022-12-10T16:17:55;17.90;;;9.87;;
13571;SDS011;6857;53.484;10.216;2022-12-10T16:20:25;12.70;;;8.00;;
13571;SDS011;6857;53.484;10.216;2022-12-10T16:22:52;14.87;;;8.90;;
13571;SDS011;6857;53.484;10.216;2022-12-10T16:25:19;15.23;;;9.03;;
13571;SDS011;6857;53.484;10.216;2022-12-10T16:27:45;15.47;;;8.33;;